Time;durP1;ratioP1;P1;durP2;ratioP2;P2;SDS_P1;SDS_P2;PMS_P1;PMS_P2;Temp;Humidity;BMP_temperature;BMP_pressure;BME280_temperature;BME280_humidity;BME280_pressure;Samples;Min_cycle;Max_cycle;Signal;HPM_P1;HPM_P2
2023/01/13 00:01:26;;;;;;;18.67;3.50;;;9.30;99.90;;;;;;6147843;23;20329;-77
2023/01/13 00:04:20;;;;;;;22.90;4.20;;;9.00;99.90;;;;;;6193227;23;20062;-78
2023/01/13 00:06:46;;;;;;;22.55;3.30;;;8.00;99.90;;;;;;6168968;22;20164;-78
2023/01/13 00:09:12;;;;;;;17.40;3.40;;;9.10;99.90;;;;;;6317337;22;20010;-78
2023/01/13 00:11:38;;;;;;;25.17;3.72;;;8.90;99.90;;;;;;6316864;22;20064;-78
2023/01/13 00:14:04;;;;;;;18.85;3.70;;;8.80;99.90;;;;;;6317765;22;20015;-78
2023/01/13 00:16:29;;;;;;;24.52;5.00;;;8.80;99.90;;;;;;6316599;22;20102;-78
2023/01/13 00:18:55;;;;;;;21.35;4.20;;;8.90;99.90;;;;;;6291783;22;20082;-78
2023/01/13 00:21:25;;;;;;;19.90;3.35;;;8.70;99.90;;;;;;6291651;22;20049;-78
2023/01/13 00:23:53;;;;;;;28.45;4.40;;;8.60;99.90;;;;;;6317600;22;20022;-78
2023/01/13 00:26:21;;;;;;;28.70;4.68;;;8.50;99.90;;;;;;6317130;22;20011;-78
2023/01/13 00:28:50;;;;;;;28.40;4.18;;;8.50;99.90;;;;;;6289991;22;20007;-77
2023/01/13 00:31:39;;;;;;;19.75;3.92;;;8.50;99.90;;;;;;6317218;22;20031;-78
2023/01/13 00:34:35;;;;;;;22.98;5.78;;;8.60;99.90;;;;;;6268187;22;20042;-77
2023/01/13 00:41:12;;;;;;;23.45;4.90;;;7.70;99.90;;;;;;6328622;22;20026;-77
2023/01/13 00:44:28;;;;;;;;;;;;;;;;;;;;;
2023/01/13 00:47:52;;;;;;;23.27;4.72;;;9.90;99.90;;;;;;6339941;22;20018;-76
2023/01/13 00:51:28;;;;;;;25.05;5.70;;;8.30;99.90;;;;;;6251750;22;20007;-76
2023/01/13 00:55:01;;;;;;;26.15;5.05;;;8.30;99.90;;;;;;6312384;22;20006;-77
2023/01/13 00:59:00;;;;;;;;;;;;;;;;;;;;;
2023/01/13 01:01:42;;;;;;;28.98;6.30;;;9.50;99.90;;;;;;6195173;23;20036;-77
2023/01/13 01:04:08;;;;;;;36.20;5.32;;;8.50;99.90;;;;;;6198918;23;20342;-77
2023/01/13 01:06:33;;;;;;;28.33;5.25;;;7.90;99.90;;;;;;6299435;22;20026;-78
2023/01/13 01:09:02;;;;;;;30.10;4.90;;;8.20;99.90;;;;;;6317288;22;20072;-78
2023/01/13 01:11:30;;;;;;;25.77;4.22;;;8.00;99.90;;;;;;6317099;22;20006;-78
2023/01/13 01:14:00;;;;;;;32.80;5.50;;;8.00;99.90;;;;;;6317578;22;20011;-77
2023/01/13 01:16:30;;;;;;;28.00;4.93;;;9.20;99.90;;;;;;6317065;22;20067;-78
2023/01/13 01:19:33;;;;;;;;;;;;;;;;;;;;;
2023/01/13 01:27:28;;;;;;;;;;;;;;;;;;;;;
2023/01/13 01:48:12;;;;;;;28.65;5.50;;;7.70;99.90;;;;;;6133744;22;20316;-79
2023/01/13 01:50:46;;;;;;;30.35;6.07;;;8.20;99.90;;;;;;6286629;22;20008;-80
2023/01/13 01:53:15;;;;;;;24.20;5.50;;;8.00;99.90;;;;;;6234908;22;20267;-80
2023/01/13 01:55:41;;;;;;;28.40;5.00;;;8.30;99.90;;;;;;6259847;22;20039;-81
2023/01/13 01:58:47;;;;;;;31.88;5.15;;;8.50;99.90;;;;;;6259689;22;20374;-80
2023/01/13 02:01:14;;;;;;;;;;;8.00;99.90;;;;;;6257654;22;20727;-79
2023/01/13 02:03:45;;;;;;;23.02;4.85;;;8.10;99.90;;;;;;6235761;22;19910;-79
2023/01/13 02:06:14;;;;;;;25.58;4.85;;;8.00;99.90;;;;;;6286190;22;20015;-80
2023/01/13 02:08:40;;;;;;;29.60;5.43;;;7.80;99.90;;;;;;6286690;22;20011;-81
2023/01/13 02:14:20;;;;;;;29.23;5.23;;;7.90;99.90;;;;;;6286152;22;20018;-80
2023/01/13 02:17:34;;;;;;;25.45;4.00;;;8.00;99.90;;;;;;6261321;22;20019;-80
2023/01/13 02:20:19;;;;;;;32.40;7.13;;;8.10;99.90;;;;;;6225779;22;20018;-80
2023/01/13 02:26:29;;;;;;;26.83;5.10;;;8.10;99.90;;;;;;6286019;22;20197;-80
2023/01/13 02:32:29;;;;;;;25.77;5.20;;;8.10;99.90;;;;;;6286128;22;20038;-80
2023/01/13 02:35:05;;;;;;;26.38;6.13;;;8.20;99.90;;;;;;6311975;22;20190;-77
2023/01/13 02:37:35;;;;;;;24.08;3.78;;;8.10;99.90;;;;;;6285652;22;20049;-77
2023/01/13 02:40:27;;;;;;;30.75;5.43;;;8.10;99.90;;;;;;6285155;22;20052;-78
2023/01/13 02:46:09;;;;;;;32.60;6.55;;;8.00;99.90;;;;;;6286365;22;20461;-78
2023/01/13 02:48:36;;;;;;;27.88;4.90;;;8.00;99.90;;;;;;6260293;22;20196;-78
2023/01/13 02:51:08;;;;;;;25.08;4.88;;;8.00;99.90;;;;;;6260080;22;20011;-77
2023/01/13 02:53:49;;;;;;;31.52;6.45;;;8.00;99.90;;;;;;6260270;22;20015;-77
2023/01/13 02:56:16;;;;;;;28.92;5.25;;;8.10;99.90;;;;;;6259659;22;20019;-78
2023/01/13 02:58:45;;;;;;;26.90;5.28;;;8.10;99.90;;;;;;6259771;22;20057;-78
2023/01/13 03:01:11;;;;;;;25.63;5.40;;;8.10;99.90;;;;;;6259975;22;20198;-77
2023/01/13 03:03:37;;;;;;;29.20;6.30;;;8.10;99.90;;;;;;6234590;22;20018;-77
2023/01/13 03:06:22;;;;;;;29.40;5.13;;;8.10;99.90;;;;;;6285797;22;20011;-77
2023/01/13 03:09:00;;;;;;;29.13;5.35;;;8.20;99.90;;;;;;6262340;22;20007;-76
2023/01/13 03:11:31;;;;;;;27.75;5.60;;;8.10;99.90;;;;;;6262812;22;20293;-78
2023/01/13 03:14:18;;;;;;;24.02;4.50;;;8.10;99.90;;;;;;6262275;22;20015;-79
2023/01/13 03:17:05;;;;;;;26.10;5.10;;;8.20;99.90;;;;;;6287346;22;20062;-77
2023/01/13 03:19:52;;;;;;;23.05;5.68;;;8.20;99.90;;;;;;6259535;22;20014;-77
2023/01/13 03:22:36;;;;;;;24.60;5.18;;;8.20;99.90;;;;;;6284303;22;20022;-78
2023/01/13 03:25:34;;;;;;;28.10;5.25;;;8.20;99.90;;;;;;6260277;22;20205;-77
2023/01/13 03:28:09;;;;;;;22.15;3.67;;;8.10;99.90;;;;;;6254536;22;20015;-78
2023/01/13 03:30:50;;;;;;;23.05;4.90;;;8.00;99.90;;;;;;6285688;22;20004;-78
2023/01/13 03:36:56;;;;;;;21.50;4.72;;;8.10;99.90;;;;;;6286175;22;20057;-79
2023/01/13 03:39:30;;;;;;;26.10;3.78;;;8.00;99.90;;;;;;6260175;22;20221;-78
2023/01/13 03:42:04;;;;;;;24.45;5.05;;;8.00;99.90;;;;;;6259935;22;20567;-79
2023/01/13 03:44:34;;;;;;;20.15;4.78;;;8.10;99.90;;;;;;6259683;22;20030;-79
2023/01/13 03:47:14;;;;;;;25.58;4.18;;;8.10;99.90;;;;;;6286754;22;20058;-79
2023/01/13 03:49:55;;;;;;;29.05;6.70;;;8.10;99.90;;;;;;6286205;22;20017;-78
2023/01/13 03:52:29;;;;;;;18.98;3.67;;;8.10;99.90;;;;;;6258925;22;20015;-78
2023/01/13 03:55:12;;;;;;;20.00;3.70;;;8.10;99.90;;;;;;6262598;22;20061;-79
2023/01/13 03:58:05;;;;;;;21.23;3.55;;;8.10;99.90;;;;;;6287513;22;20011;-77
2023/01/13 04:00:39;;;;;;;19.83;4.55;;;8.10;99.90;;;;;;6287383;22;20017;-77
2023/01/13 04:03:10;;;;;;;23.38;4.43;;;8.00;99.90;;;;;;6261508;22;20011;-77
2023/01/13 04:05:42;;;;;;;22.42;4.05;;;8.00;99.90;;;;;;6287391;22;20078;-77
2023/01/13 04:08:22;;;;;;;22.75;4.10;;;8.00;99.90;;;;;;6287138;22;20067;-78
2023/01/13 04:11:15;;;;;;;21.08;3.90;;;8.00;99.90;;;;;;6287402;22;20194;-77
2023/01/13 04:13:44;;;;;;;34.90;5.30;;;8.00;99.90;;;;;;6270924;22;20015;-77
2023/01/13 04:16:10;;;;;;;28.50;4.88;;;8.00;99.90;;;;;;6260878;22;20019;-76
2023/01/13 04:18:38;;;;;;;28.05;5.30;;;7.90;99.90;;;;;;6236501;22;20088;-76
2023/01/13 04:21:05;;;;;;;20.67;4.70;;;7.90;99.90;;;;;;6286684;22;20019;-78
2023/01/13 04:23:31;;;;;;;24.45;4.40;;;8.00;99.90;;;;;;6287210;22;20015;-78
2023/01/13 04:25:57;;;;;;;25.48;4.45;;;8.00;99.90;;;;;;6287119;22;20015;-79
2023/01/13 04:28:23;;;;;;;28.63;5.22;;;7.90;99.90;;;;;;6235862;22;20352;-78
2023/01/13 04:30:49;;;;;;;27.70;5.25;;;8.00;99.90;;;;;;6261904;22;20460;-78
2023/01/13 04:33:16;;;;;;;30.40;4.90;;;8.00;99.90;;;;;;6260058;22;20335;-77
2023/01/13 04:35:44;;;;;;;30.83;5.10;;;7.90;99.90;;;;;;6235239;22;20026;-78
2023/01/13 04:38:13;;;;;;;26.27;5.10;;;7.90;99.90;;;;;;6261307;22;20015;-78
2023/01/13 04:40:40;;;;;;;28.85;5.03;;;7.90;99.90;;;;;;6286846;22;20033;-77
2023/01/13 04:43:05;;;;;;;22.92;4.55;;;8.00;99.90;;;;;;6264091;22;20019;-79
2023/01/13 04:45:32;;;;;;;30.38;6.28;;;7.90;99.90;;;;;;6287275;22;20105;-79
2023/01/13 04:47:57;;;;;;;28.42;4.97;;;8.00;99.90;;;;;;6287006;22;20194;-79
2023/01/13 04:50:23;;;;;;;26.30;5.20;;;8.00;99.90;;;;;;6260855;22;20034;-79
2023/01/13 04:52:50;;;;;;;25.92;5.30;;;8.00;99.90;;;;;;6286728;22;20007;-80
2023/01/13 04:55:16;;;;;;;23.58;4.70;;;7.90;99.90;;;;;;6286873;22;20088;-80
2023/01/13 04:57:42;;;;;;;24.90;4.72;;;8.10;99.90;;;;;;6288097;22;20011;-80
2023/01/13 05:03:17;;;;;;;22.05;4.00;;;8.70;99.90;;;;;;6301936;22;20042;-79
2023/01/13 05:05:43;;;;;;;24.98;4.97;;;8.20;99.90;;;;;;6261719;22;20018;-79
2023/01/13 05:08:12;;;;;;;21.92;4.43;;;8.20;99.90;;;;;;6287155;22;20035;-78
2023/01/13 05:10:37;;;;;;;25.85;4.20;;;8.30;99.90;;;;;;6261213;22;20305;-78
2023/01/13 05:18:31;;;;;;;19.83;4.30;;;8.30;99.90;;;;;;6290252;22;20023;-79
2023/01/13 05:20:57;;;;;;;22.63;4.15;;;8.30;99.90;;;;;;6261119;22;20019;-78
2023/01/13 05:26:07;;;;;;;25.65;5.10;;;8.40;99.90;;;;;;6312703;22;20264;-79
2023/01/13 05:28:33;;;;;;;29.27;5.18;;;8.30;99.90;;;;;;6260317;22;20007;-79
2023/01/13 05:30:59;;;;;;;25.88;4.88;;;8.30;99.90;;;;;;6261192;22;20066;-77
2023/01/13 05:33:25;;;;;;;24.33;4.00;;;8.40;99.90;;;;;;6311001;22;20014;-77
2023/01/13 05:35:51;;;;;;;25.10;4.82;;;8.40;99.90;;;;;;6312073;22;20324;-77
2023/01/13 05:38:17;;;;;;;16.88;4.43;;;8.50;99.90;;;;;;6312249;22;20015;-77
2023/01/13 05:43:29;;;;;;;30.00;6.63;;;8.40;99.90;;;;;;6281095;22;20080;-77
2023/01/13 05:45:59;;;;;;;19.42;4.57;;;8.40;99.90;;;;;;6313575;22;20015;-77
2023/01/13 05:48:33;;;;;;;20.73;4.07;;;8.40;99.90;;;;;;6260642;22;20030;-76
2023/01/13 05:51:01;;;;;;;24.63;4.93;;;8.40;99.90;;;;;;6286366;22;20063;-78
2023/01/13 05:53:27;;;;;;;19.13;3.60;;;8.40;99.90;;;;;;6285533;22;20007;-78
2023/01/13 05:55:53;;;;;;;21.63;3.97;;;8.40;99.90;;;;;;6286194;22;20011;-77
2023/01/13 05:58:21;;;;;;;26.40;4.72;;;8.40;99.90;;;;;;6286040;22;20070;-77
2023/01/13 06:00:47;;;;;;;21.40;4.10;;;8.40;99.90;;;;;;6235536;22;20059;-78
2023/01/13 06:03:13;;;;;;;22.80;4.70;;;8.40;99.90;;;;;;6286073;22;20019;-78
2023/01/13 06:05:39;;;;;;;17.92;3.78;;;8.40;99.90;;;;;;6285807;22;20011;-79
2023/01/13 06:08:06;;;;;;;30.70;6.25;;;8.30;99.90;;;;;;6286514;22;20097;-79
2023/01/13 06:10:32;;;;;;;27.40;5.07;;;8.40;99.90;;;;;;6260820;22;20070;-79
2023/01/13 06:12:58;;;;;;;19.83;4.28;;;8.30;99.90;;;;;;6259778;22;20249;-79
2023/01/13 06:15:24;;;;;;;23.88;4.60;;;8.30;99.90;;;;;;6259626;22;20007;-79
2023/01/13 06:17:50;;;;;;;28.95;4.82;;;8.30;99.90;;;;;;6259910;22;20014;-78
2023/01/13 06:20:16;;;;;;;19.10;4.50;;;8.40;99.90;;;;;;6285915;22;20007;-78
2023/01/13 06:22:47;;;;;;;29.17;4.15;;;8.30;99.90;;;;;;6260331;22;20027;-78
2023/01/13 06:25:29;;;;;;;20.33;4.35;;;8.30;99.90;;;;;;6284910;22;20026;-79
2023/01/13 06:27:57;;;;;;;25.55;3.63;;;8.30;99.90;;;;;;6285473;22;20226;-78
2023/01/13 06:30:25;;;;;;;21.98;3.88;;;8.40;99.90;;;;;;6259845;22;20033;-78
2023/01/13 06:32:57;;;;;;;17.73;4.15;;;8.40;99.90;;;;;;6259701;22;20361;-78
2023/01/13 06:35:27;;;;;;;24.73;4.47;;;8.40;99.90;;;;;;6233502;22;20019;-79
2023/01/13 06:37:55;;;;;;;26.88;4.47;;;8.40;99.90;;;;;;6285332;22;20020;-79
2023/01/13 06:40:21;;;;;;;18.95;3.58;;;8.40;99.90;;;;;;6259413;22;20018;-79
2023/01/13 06:45:33;;;;;;;17.83;3.92;;;8.40;99.90;;;;;;6314736;22;20026;-79
2023/01/13 06:47:59;;;;;;;17.63;3.55;;;8.40;99.90;;;;;;6316301;22;20027;-78
2023/01/13 06:50:27;;;;;;;17.10;3.55;;;8.30;99.90;;;;;;6316523;22;20236;-78
2023/01/13 06:52:52;;;;;;;21.05;4.15;;;8.30;99.90;;;;;;6290683;22;20006;-79
2023/01/13 06:55:19;;;;;;;14.50;3.15;;;8.20;99.90;;;;;;6265045;22;20011;-78
2023/01/13 06:57:54;;;;;;;20.52;3.88;;;8.10;99.90;;;;;;6266391;22;20019;-78
2023/01/13 07:00:21;;;;;;;23.63;3.83;;;8.10;99.90;;;;;;6316967;22;20010;-77
2023/01/13 07:02:46;;;;;;;18.45;3.13;;;8.00;99.90;;;;;;6291014;22;20064;-79
2023/01/13 07:05:13;;;;;;;17.23;3.50;;;7.90;99.90;;;;;;6266020;22;20297;-78
2023/01/13 07:07:39;;;;;;;20.80;3.85;;;7.90;99.90;;;;;;6264782;22;20037;-77
2023/01/13 07:10:08;;;;;;;16.92;3.22;;;7.90;99.90;;;;;;6291104;22;20348;-77
2023/01/13 07:15:17;;;;;;;14.60;4.25;;;7.70;99.90;;;;;;6265693;22;20007;-79
2023/01/13 07:15:24;;;;;;;15.48;3.35;;;7.80;99.90;;;;;;6315479;22;20042;-78
2023/01/13 07:17:52;;;;;;;18.02;3.15;;;7.80;99.90;;;;;;6315975;22;20011;-73
2023/01/13 07:21:18;;;;;;;;;;;;;;;;;;;;;
2023/01/13 07:27:16;;;;;;;18.75;3.38;;;9.20;99.90;;;;;;6317061;22;20014;-78
2023/01/13 07:33:35;;;;;;;19.50;3.30;;;7.20;99.90;;;;;;6342107;22;20024;-79
2023/01/13 07:43:31;;;;;;;19.58;3.20;;;7.40;99.90;;;;;;6187778;23;20087;-78
2023/01/13 07:47:01;;;;;;;15.15;3.15;;;7.50;99.90;;;;;;6184010;23;20071;-78
2023/01/13 07:49:46;;;;;;;24.10;3.85;;;7.90;99.90;;;;;;5933172;24;20017;-79
2023/01/13 07:59:41;;;;;;;17.90;2.72;;;7.40;99.90;;;;;;5887004;24;20103;-79
2023/01/13 08:02:23;;;;;;;19.40;3.28;;;7.60;99.90;;;;;;5967989;23;20282;-76
2023/01/13 08:05:31;;;;;;;;;;;;;;;;;;;;;
2023/01/13 08:08:00;;;;;;;17.45;4.05;;;7.60;99.90;;;;;;6070146;23;20042;-78
2023/01/13 08:10:38;;;;;;;;;;;;;;;;;;;;;
2023/01/13 08:13:18;;;;;;;31.48;3.88;;;6.70;99.90;;;;;;6189052;22;20042;-78
2023/01/13 08:16:14;;;;;;;22.60;4.50;;;5.70;99.90;;;;;;6156350;23;20065;-77
2023/01/13 08:18:40;;;;;;;19.92;4.10;;;8.00;99.90;;;;;;6109863;23;20013;-77
2023/01/13 08:21:09;;;;;;;25.05;4.45;;;7.80;99.90;;;;;;6234517;22;20076;-77
2023/01/13 08:23:35;;;;;;;25.95;4.40;;;7.40;99.90;;;;;;6261180;22;20305;-78
2023/01/13 08:26:02;;;;;;;20.70;4.20;;;7.60;99.90;;;;;;6260964;22;20019;-77
2023/01/13 08:28:31;;;;;;;21.35;3.28;;;7.70;99.90;;;;;;6313361;22;20249;-77
2023/01/13 08:31:02;;;;;;;17.92;4.00;;;7.60;99.90;;;;;;6261630;22;20007;-77
2023/01/13 08:33:28;;;;;;;25.52;4.00;;;7.60;99.90;;;;;;6260710;22;20030;-75
2023/01/13 08:35:57;;;;;;;24.75;4.65;;;7.60;99.90;;;;;;6234676;22;20104;-78
2023/01/13 08:38:23;;;;;;;20.15;4.15;;;7.60;99.90;;;;;;6285819;22;20179;-77
2023/01/13 08:40:49;;;;;;;21.83;4.05;;;7.60;99.90;;;;;;6284917;22;20065;-78
2023/01/13 08:43:15;;;;;;;19.77;4.18;;;7.80;99.90;;;;;;6286675;22;20039;-77
2023/01/13 08:45:41;;;;;;;24.08;4.70;;;7.80;99.90;;;;;;6284135;22;20015;-76
2023/01/13 08:48:07;;;;;;;22.00;3.60;;;7.80;99.90;;;;;;6260884;22;20023;-77
2023/01/13 08:50:50;;;;;;;16.52;3.88;;;7.80;99.90;;;;;;6286146;22;20014;-77
2023/01/13 08:53:21;;;;;;;21.50;4.40;;;7.80;99.90;;;;;;6231835;22;20007;-78
2023/01/13 08:55:47;;;;;;;17.33;3.33;;;7.90;99.90;;;;;;6202581;22;20019;-78
2023/01/13 08:58:13;;;;;;;15.43;3.38;;;8.00;99.90;;;;;;6177924;22;20023;-77
2023/01/13 09:00:39;;;;;;;17.27;3.65;;;7.90;99.90;;;;;;6227787;22;20067;-77
2023/01/13 09:03:07;;;;;;;26.88;5.53;;;7.90;99.90;;;;;;6253467;22;20030;-78
2023/01/13 09:05:34;;;;;;;18.83;4.07;;;8.00;99.90;;;;;;6253410;22;20020;-77
2023/01/13 09:08:02;;;;;;;19.70;3.78;;;8.00;99.90;;;;;;6228455;22;20022;-78
2023/01/13 09:10:41;;;;;;;;;;;;;;;;;;;;;
2023/01/13 09:13:12;;;;;;;27.58;4.30;;;7.90;99.90;;;;;;6253285;22;20049;-72
2023/01/13 09:15:44;;;;;;;25.48;4.38;;;7.70;99.90;;;;;;6253075;22;20011;-77
2023/01/13 09:18:10;;;;;;;26.17;3.92;;;7.80;99.90;;;;;;6289651;22;20443;-79
2023/01/13 09:20:36;;;;;;;28.88;4.88;;;7.90;99.90;;;;;;6260202;22;20011;-77
2023/01/13 09:23:02;;;;;;;17.15;3.67;;;7.80;99.90;;;;;;6284942;22;20039;-77
2023/01/13 09:25:40;;;;;;;24.42;3.95;;;7.80;99.90;;;;;;6284828;22;20049;-78
2023/01/13 09:28:07;;;;;;;24.77;4.65;;;9.40;99.90;;;;;;6305698;22;20539;-78
2023/01/13 09:30:36;;;;;;;16.52;3.30;;;7.60;99.90;;;;;;6253507;22;20015;-78
2023/01/13 09:36:33;;;;;;;17.95;4.30;;;6.40;99.90;;;;;;6159427;23;20353;-79
2023/01/13 09:39:09;;;;;;;22.15;3.67;;;7.30;99.90;;;;;;6161367;23;20013;-78
2023/01/13 09:44:35;;;;;;;16.83;3.22;;;7.60;99.90;;;;;;6310969;22;20030;-79
2023/01/13 09:47:05;;;;;;;12.23;2.90;;;7.30;99.90;;;;;;6284998;22;20027;-78
2023/01/13 09:49:40;;;;;;;15.32;2.88;;;7.60;99.90;;;;;;6284085;22;20007;-77
2023/01/13 09:52:20;;;;;;;;;;;7.30;99.90;;;;;;6283912;22;20019;-77
2023/01/13 09:54:59;;;;;;;21.90;4.15;;;7.40;99.90;;;;;;6284434;22;20234;-77
2023/01/13 09:57:30;;;;;;;22.23;3.72;;;7.40;99.90;;;;;;6284934;22;20383;-77
2023/01/13 09:59:57;;;;;;;21.92;4.38;;;7.70;99.90;;;;;;6309828;22;20047;-78
2023/01/13 10:02:41;;;;;;;19.25;3.63;;;6.60;99.90;;;;;;6259279;22;20019;-78
2023/01/13 10:05:31;;;;;;;19.55;3.08;;;7.40;99.90;;;;;;6309422;22;20018;-78
2023/01/13 10:08:25;;;;;;;25.13;4.47;;;7.80;99.90;;;;;;6284899;22;20078;-78
2023/01/13 10:13:12;;;;;;;19.98;3.88;;;7.00;99.90;;;;;;6275934;22;20041;-78
2023/01/13 10:14:04;;;;;;;23.30;4.10;;;7.80;99.90;;;;;;6308655;22;20070;-77
2023/01/13 10:16:40;;;;;;;19.25;3.50;;;7.20;99.90;;;;;;6283447;22;20018;-78
2023/01/13 10:19:23;;;;;;;29.17;3.63;;;7.80;99.90;;;;;;6284362;22;20019;-78
2023/01/13 10:22:25;;;;;;;22.52;4.90;;;7.40;99.90;;;;;;6282610;22;20488;-77
2023/01/13 10:25:08;;;;;;;17.38;3.17;;;7.20;99.90;;;;;;6282996;22;20007;-78
2023/01/13 10:27:36;;;;;;;20.27;3.22;;;9.40;99.90;;;;;;6283743;22;20298;-77
2023/01/13 10:30:20;;;;;;;19.92;3.25;;;7.70;99.90;;;;;;6309775;22;20161;-77
2023/01/13 10:32:58;;;;;;;15.18;3.00;;;7.90;99.90;;;;;;6309702;22;20014;-76
2023/01/13 10:36:01;;;;;;;20.38;3.25;;;7.80;99.90;;;;;;6310024;22;20018;-76
2023/01/13 10:38:37;;;;;;;18.35;3.03;;;7.80;99.90;;;;;;6284675;22;20286;-76
2023/01/13 10:41:05;;;;;;;15.15;2.58;;;7.90;99.90;;;;;;6309387;22;20019;-76
2023/01/13 10:43:30;;;;;;;21.70;3.22;;;7.60;99.90;;;;;;6284654;22;20264;-77
2023/01/13 10:46:05;;;;;;;18.75;3.65;;;8.00;99.90;;;;;;6263268;22;20022;-76
2023/01/13 10:52:01;;;;;;;17.38;3.22;;;7.90;99.90;;;;;;6193921;22;20067;-76
2023/01/13 10:54:27;;;;;;;20.05;3.50;;;8.00;99.90;;;;;;6227518;22;20306;-77
2023/01/13 10:57:14;;;;;;;17.17;3.63;;;7.70;99.90;;;;;;6251377;22;20049;-77
2023/01/13 10:59:40;;;;;;;20.05;4.15;;;8.00;99.90;;;;;;6225304;22;20007;-77
2023/01/13 11:02:27;;;;;;;17.08;2.80;;;7.80;99.90;;;;;;6201599;22;20050;-77
2023/01/13 11:04:52;;;;;;;18.88;3.33;;;7.80;99.90;;;;;;6249209;22;20011;-77
2023/01/13 11:07:51;;;;;;;23.67;4.72;;;7.90;99.90;;;;;;6252793;22;20070;-78
2023/01/13 11:10:30;;;;;;;14.35;3.15;;;7.90;99.90;;;;;;6252226;22;20008;-77
2023/01/13 11:13:32;;;;;;;24.20;4.07;;;8.20;99.90;;;;;;6250630;22;20396;-76
2023/01/13 11:16:14;;;;;;;21.23;3.88;;;8.00;99.90;;;;;;6251438;22;20019;-76
2023/01/13 11:19:11;;;;;;;21.83;4.30;;;7.90;99.90;;;;;;6225723;22;20334;-77
2023/01/13 11:22:01;;;;;;;17.33;3.28;;;8.60;99.90;;;;;;6225773;22;20078;-76
2023/01/13 11:24:52;;;;;;;17.00;2.95;;;7.10;99.90;;;;;;6288544;22;20288;-76
2023/01/13 11:27:48;;;;;;;17.52;2.75;;;8.30;99.90;;;;;;6315887;22;20193;-76
2023/01/13 11:30:52;;;;;;;14.43;3.03;;;8.10;99.90;;;;;;6316782;22;20014;-76
2023/01/13 11:33:36;;;;;;;13.50;3.17;;;7.90;99.90;;;;;;6282894;22;20007;-76
2023/01/13 11:36:15;;;;;;;20.60;3.05;;;8.30;99.90;;;;;;6289828;22;20030;-77
2023/01/13 11:38:46;;;;;;;13.10;3.35;;;8.10;99.90;;;;;;6315465;22;20011;-75
2023/01/13 11:41:21;;;;;;;22.25;3.25;;;8.30;99.90;;;;;;6315434;22;20063;-78
2023/01/13 11:44:04;;;;;;;14.93;3.75;;;8.10;99.90;;;;;;6288465;22;20033;-79
2023/01/13 11:46:31;;;;;;;14.52;2.50;;;8.10;99.90;;;;;;6316367;22;20186;-77
2023/01/13 11:49:00;;;;;;;17.58;3.33;;;6.50;99.90;;;;;;6266245;22;20081;-77
2023/01/13 11:52:03;;;;;;;14.95;3.33;;;8.10;99.90;;;;;;6289390;22;20007;-76
2023/01/13 11:55:08;;;;;;;17.92;3.70;;;8.30;99.90;;;;;;6224740;22;20019;-76
2023/01/13 11:57:59;;;;;;;11.23;3.13;;;8.20;99.90;;;;;;6289700;22;20070;-76
2023/01/13 12:00:46;;;;;;;11.18;2.72;;;8.40;99.90;;;;;;6291311;22;20021;-76
2023/01/13 12:03:49;;;;;;;11.13;2.90;;;8.50;99.90;;;;;;6291209;22;20062;-76
2023/01/13 12:06:17;;;;;;;13.40;2.75;;;8.40;99.90;;;;;;6290192;22;20025;-77
2023/01/13 12:09:01;;;;;;;11.13;2.30;;;8.40;99.90;;;;;;6290962;22;20041;-78
2023/01/13 12:12:19;;;;;;;12.30;2.38;;;8.30;99.90;;;;;;6316972;22;20167;-77
2023/01/13 12:15:22;;;;;;;;;;;;;;;;;;;;;
2023/01/13 12:18:26;;;;;;;15.38;3.35;;;8.40;99.90;;;;;;6315427;22;20018;-78
2023/01/13 12:21:07;;;;;;;13.60;2.60;;;7.80;99.90;;;;;;6288207;22;20080;-78
2023/01/13 12:23:47;;;;;;;9.90;1.98;;;8.40;99.90;;;;;;6290557;22;20257;-77
2023/01/13 12:26:15;;;;;;;16.23;2.70;;;8.40;99.90;;;;;;6290656;22;20018;-77
2023/01/13 12:28:53;;;;;;;9.35;2.08;;;8.50;99.90;;;;;;6315937;22;20113;-77
2023/01/13 12:31:28;;;;;;;11.75;2.33;;;8.40;99.90;;;;;;6290970;22;20007;-78
2023/01/13 12:33:54;;;;;;;11.07;2.30;;;8.60;99.90;;;;;;6316218;22;20013;-78
2023/01/13 12:36:26;;;;;;;14.27;2.55;;;8.50;99.90;;;;;;6316000;22;20038;-77
2023/01/13 12:39:15;;;;;;;17.67;2.67;;;8.50;99.90;;;;;;6290438;22;20011;-81
2023/01/13 12:44:36;;;;;;;11.65;2.88;;;8.50;99.90;;;;;;6311536;22;20073;-74
2023/01/13 12:47:02;;;;;;;10.82;2.15;;;8.70;99.90;;;;;;6282942;22;20082;-77
2023/01/13 12:50:28;;;;;;;15.40;3.15;;;8.60;99.90;;;;;;6259043;22;20007;-77
2023/01/13 12:53:30;;;;;;;14.00;2.65;;;7.80;99.90;;;;;;6310193;22;20282;-77
2023/01/13 12:56:47;;;;;;;12.07;2.97;;;9.00;99.90;;;;;;6236205;22;20018;-77
2023/01/13 12:59:16;;;;;;;7.95;2.28;;;8.60;99.90;;;;;;6261095;22;20067;-76
2023/01/13 13:01:43;;;;;;;11.43;2.38;;;8.70;99.90;;;;;;6309530;22;20308;-77
2023/01/13 13:04:16;;;;;;;14.25;2.45;;;8.70;99.90;;;;;;6285254;22;20011;-76
2023/01/13 13:06:50;;;;;;;10.38;2.70;;;8.80;99.90;;;;;;6309398;22;20224;-76
2023/01/13 13:09:36;;;;;;;10.52;2.53;;;8.80;99.90;;;;;;6284461;22;20065;-77
2023/01/13 13:15:48;;;;;;;10.57;2.80;;;8.90;99.90;;;;;;6310769;22;20019;-78
2023/01/13 13:18:32;;;;;;;12.25;2.20;;;8.80;99.90;;;;;;6284035;22;20019;-77
2023/01/13 13:21:04;;;;;;;11.20;2.70;;;9.20;99.90;;;;;;6258423;22;20019;-77
2023/01/13 13:23:44;;;;;;;8.85;2.80;;;8.80;99.90;;;;;;6310305;22;20252;-77
2023/01/13 13:26:19;;;;;;;9.02;1.90;;;8.80;99.90;;;;;;6284059;22;20011;-77
2023/01/13 13:29:22;;;;;;;12.85;2.55;;;8.70;99.90;;;;;;6284523;22;20062;-77
2023/01/13 13:31:56;;;;;;;8.32;2.60;;;8.80;99.90;;;;;;6282701;22;20011;-76
2023/01/13 13:34:50;;;;;;;10.93;1.92;;;8.90;99.90;;;;;;6310939;22;20062;-76
2023/01/13 13:48:33;;;;;;;14.48;2.92;;;8.50;99.90;;;;;;6071674;23;20034;-77
2023/01/13 13:51:27;;;;;;;10.43;1.83;;;8.50;99.90;;;;;;6131544;23;20212;-78
2023/01/13 13:54:01;;;;;;;15.20;2.55;;;7.10;99.90;;;;;;6146793;23;20107;-77
2023/01/13 13:59:55;;;;;;;6.15;2.00;;;8.40;99.90;;;;;;6091224;23;20026;-76
2023/01/13 14:02:38;;;;;;;12.73;2.78;;;8.50;99.90;;;;;;6161110;23;20040;-78
2023/01/13 14:09:55;;;;;;;11.95;2.33;;;8.60;99.90;;;;;;6267230;22;20027;-77
2023/01/13 14:20:43;;;;;;;;;;;;;;;;;;;;;
2023/01/13 14:31:29;;;;;;;14.73;2.53;;;7.80;99.90;;;;;;5955508;24;20335;-78
2023/01/13 14:33:58;;;;;;;8.27;2.17;;;8.50;99.90;;;;;;5944696;23;20069;-79
2023/01/13 14:36:49;;;;;;;9.00;2.20;;;8.50;99.90;;;;;;6130536;23;20099;-79
2023/01/13 14:39:15;;;;;;;9.30;2.28;;;8.30;99.90;;;;;;6223855;22;20332;-79
2023/01/13 14:41:41;;;;;;;11.90;2.33;;;8.20;99.90;;;;;;6258925;22;20008;-77
2023/01/13 14:44:15;;;;;;;12.45;2.75;;;8.10;99.90;;;;;;6257360;22;20027;-78
2023/01/13 14:46:45;;;;;;;13.50;2.90;;;8.00;99.90;;;;;;6287014;22;20026;-78
2023/01/13 14:49:43;;;;;;;12.80;2.50;;;6.90;99.90;;;;;;6289331;22;20010;-77
2023/01/13 14:52:55;;;;;;;8.48;2.83;;;8.20;99.90;;;;;;6289487;22;20244;-78
2023/01/13 14:55:40;;;;;;;11.55;3.03;;;8.70;99.90;;;;;;6314541;22;20011;-74
2023/01/13 14:58:24;;;;;;;8.93;2.90;;;8.20;99.90;;;;;;6313082;22;20019;-76
2023/01/13 15:01:50;;;;;;;9.57;2.83;;;8.30;99.90;;;;;;6288629;22;20017;-77
2023/01/13 15:04:41;;;;;;;14.75;2.72;;;7.50;99.90;;;;;;6304450;22;20053;-76
2023/01/13 15:07:23;;;;;;;12.02;3.50;;;8.30;99.90;;;;;;6289543;22;20103;-76
2023/01/13 15:10:20;;;;;;;11.88;3.38;;;8.30;99.90;;;;;;6315876;22;20015;-77
2023/01/13 15:16:46;;;;;;;13.98;2.40;;;7.50;99.90;;;;;;6249925;22;20014;-76
2023/01/13 15:19:50;;;;;;;8.07;2.40;;;10.40;99.90;;;;;;6290526;22;20062;-76
2023/01/13 15:23:31;;;;;;;15.85;3.83;;;7.10;99.90;;;;;;6276564;22;20007;-77
2023/01/13 15:26:24;;;;;;;15.52;2.88;;;7.50;99.90;;;;;;6072796;23;20018;-76
2023/01/13 15:29:29;;;;;;;;;;;;;;;;;;;;;
2023/01/13 15:32:46;;;;;;;10.77;2.67;;;8.60;99.90;;;;;;6072963;23;20025;-76
2023/01/13 15:35:57;;;;;;;11.68;3.70;;;7.70;99.90;;;;;;6074714;23;20074;-76
2023/01/13 15:38:23;;;;;;;11.57;2.45;;;8.40;99.90;;;;;;6073775;23;20057;-76
2023/01/13 15:40:53;;;;;;;11.95;2.30;;;8.20;99.90;;;;;;6130093;23;20077;-76
2023/01/13 15:49:40;;;;;;;12.38;3.22;;;8.70;99.90;;;;;;6296806;22;20424;-75
2023/01/13 15:53:04;;;;;;;;;;;;;;;;;;;;;
2023/01/13 15:55:39;;;;;;;16.08;3.13;;;7.40;99.90;;;;;;6264252;22;20010;-74
2023/01/13 15:58:13;;;;;;;12.40;2.60;;;6.80;99.90;;;;;;6281770;22;20025;-75
2023/01/13 16:00:42;;;;;;;9.43;1.55;;;8.10;99.90;;;;;;6285754;22;20302;-77
2023/01/13 16:03:12;;;;;;;4.55;1.33;;;6.20;99.90;;;;;;6209832;22;20046;-76
2023/01/13 16:05:39;;;;;;;6.57;1.33;;;5.50;99.90;;;;;;6260089;22;20574;-76
2023/01/13 16:08:20;;;;;;;7.05;1.15;;;5.80;99.90;;;;;;6285044;22;20046;-75
2023/01/13 16:10:56;;;;;;;6.65;1.08;;;5.10;99.90;;;;;;6259497;22;20007;-76
2023/01/13 16:14:33;;;;;;;5.80;1.20;;;5.80;99.90;;;;;;6234955;22;20014;-78
2023/01/13 16:20:17;;;;;;;11.00;2.65;;;6.00;99.90;;;;;;6054090;23;20026;-75
2023/01/13 16:23:06;;;;;;;8.35;2.00;;;6.70;99.90;;;;;;6105489;23;20085;-75
2023/01/13 16:25:34;;;;;;;8.85;1.85;;;6.80;99.90;;;;;;6134782;23;20044;-74
2023/01/13 16:28:27;;;;;;;14.77;2.50;;;6.30;99.90;;;;;;6201683;22;20007;-76